Airport View

Enter AWOS ICAO identifier for current METAR.

ex. KFNL

KHRJ 262330Z AUTO 00000KT 10SM CLR 09/00 A2997 RMK AO2 T00860004

26 Jan 2020 23:33

Frequency: 119.025

Phone: 910-814-3946

Other Area AWOS: KFBG - KJNX - KPOB - KTTA

TAF KFBG 261800Z 2618/2800 28010G15KT 9999 SKC QNH2990INS BECMG 2622/2623 27006KT 9999 SKC QNH2998INS BECMG 2703/2704 22006KT 9999 SCT065 QNH2994INS BECMG 2711/2712 20008KT 9999 SCT035 BKN047 QNH2990INS TX16/2621Z TN03/2712Z